Time;durP1;ratioP1;P1;durP2;ratioP2;P2;SDS_P1;SDS_P2;PMS_P1;PMS_P2;Temp;Humidity;BMP_temperature;BMP_pressure;BME280_temperature;BME280_humidity;BME280_pressure;Samples;Min_cycle;Max_cycle;Signal;HPM_P1;HPM_P2
2021/08/08 00:01:34;;;;;;;12.20;2.25;;;;;;;;;;5030047;28;20174;-85
2021/08/08 00:04:00;;;;;;;9.90;2.70;;;;;;;;;;5044069;28;20184;-86
2021/08/08 00:06:26;;;;;;;7.10;2.27;;;;;;;;;;5044466;28;20188;-85
2021/08/08 00:08:52;;;;;;;3.78;2.50;;;;;;;;;;5044885;28;20443;-85
2021/08/08 00:11:18;;;;;;;9.17;2.50;;;;;;;;;;5032316;28;20180;-85
2021/08/08 00:13:44;;;;;;;4.13;1.92;;;;;;;;;;5045319;28;20982;-86
2021/08/08 00:16:10;;;;;;;7.05;2.38;;;;;;;;;;5053211;28;20182;-85
2021/08/08 00:18:36;;;;;;;4.68;2.67;;;;;;;;;;5056112;28;20213;-85
2021/08/08 00:21:02;;;;;;;9.35;2.40;;;;;;;;;;5046365;28;20184;-85
2021/08/08 00:23:28;;;;;;;11.83;2.00;;;;;;;;;;5043015;28;20696;-85
2021/08/08 00:25:54;;;;;;;4.97;2.30;;;;;;;;;;5044794;28;20496;-85
2021/08/08 00:28:20;;;;;;;9.05;2.53;;;;;;;;;;5033293;28;20250;-85
2021/08/08 00:30:46;;;;;;;2.47;2.10;;;;;;;;;;5046043;28;20248;-84
2021/08/08 00:33:12;;;;;;;7.53;2.97;;;;;;;;;;5045770;28;20229;-85
2021/08/08 00:35:42;;;;;;;4.43;2.10;;;;;;;;;;5046965;28;20916;-85
2021/08/08 00:38:08;;;;;;;7.28;2.10;;;;;;;;;;5046259;28;20186;-85
2021/08/08 00:40:34;;;;;;;6.35;2.53;;;;;;;;;;5044745;28;20177;-85
2021/08/08 00:43:00;;;;;;;6.77;2.50;;;;;;;;;;5035665;28;20194;-85
2021/08/08 00:45:26;;;;;;;5.80;2.23;;;;;;;;;;5034186;28;20495;-85
2021/08/08 00:47:52;;;;;;;2.70;1.95;;;;;;;;;;5032825;28;20485;-84
2021/08/08 00:50:18;;;;;;;6.27;2.57;;;;;;;;;;5043564;28;20188;-84
2021/08/08 00:52:44;;;;;;;4.53;2.42;;;;;;;;;;5029626;28;20441;-85
2021/08/08 00:55:11;;;;;;;5.20;3.05;;;;;;;;;;5041357;28;20184;-85
2021/08/08 00:57:37;;;;;;;9.45;2.83;;;;;;;;;;5044689;28;20213;-85
2021/08/08 01:00:04;;;;;;;5.93;2.67;;;;;;;;;;5044686;28;20186;-85
2021/08/08 01:02:32;;;;;;;5.30;2.00;;;;;;;;;;5044389;28;20450;-84
2021/08/08 01:05:06;;;;;;;9.82;3.20;;;;;;;;;;5044322;28;20253;-85
2021/08/08 01:07:34;;;;;;;7.25;2.67;;;;;;;;;;5029373;28;20178;-84
2021/08/08 01:10:01;;;;;;;9.43;2.85;;;;;;;;;;5044243;28;20259;-85
2021/08/08 01:12:28;;;;;;;4.30;2.40;;;;;;;;;;5044810;28;20206;-84
2021/08/08 01:14:55;;;;;;;7.03;2.20;;;;;;;;;;5043335;28;20193;-84
2021/08/08 01:17:22;;;;;;;6.22;3.35;;;;;;;;;;5044606;28;20188;-84
2021/08/08 01:19:52;;;;;;;5.90;2.47;;;;;;;;;;5026066;28;20222;-85
2021/08/08 01:22:18;;;;;;;7.07;2.95;;;;;;;;;;5045651;28;20166;-84
2021/08/08 01:24:45;;;;;;;4.15;2.55;;;;;;;;;;5044017;28;20183;-85
2021/08/08 01:27:11;;;;;;;7.32;2.38;;;;;;;;;;5042804;28;20196;-84
2021/08/08 01:29:37;;;;;;;6.40;3.95;;;;;;;;;;5033012;28;20184;-85
2021/08/08 01:32:03;;;;;;;3.10;2.80;;;;;;;;;;5026876;28;20202;-85
2021/08/08 01:34:29;;;;;;;5.07;2.78;;;;;;;;;;5029188;28;20173;-85
2021/08/08 01:36:55;;;;;;;7.93;3.10;;;;;;;;;;5041320;28;20664;-85
2021/08/08 01:39:22;;;;;;;4.80;3.33;;;;;;;;;;5043215;28;20433;-84
2021/08/08 01:41:52;;;;;;;7.20;3.00;;;;;;;;;;5043128;28;20169;-85
2021/08/08 01:44:23;;;;;;;7.55;2.72;;;;;;;;;;5040770;28;20185;-84
2021/08/08 01:46:52;;;;;;;4.22;2.60;;;;;;;;;;5026141;28;20243;-85
2021/08/08 01:49:20;;;;;;;4.72;3.10;;;;;;;;;;5044953;28;20210;-85
2021/08/08 01:51:46;;;;;;;5.95;3.05;;;;;;;;;;5036507;28;20192;-85
2021/08/08 01:54:12;;;;;;;7.40;3.15;;;;;;;;;;5036870;28;20193;-85
2021/08/08 01:56:40;;;;;;;6.88;3.63;;;;;;;;;;5043096;28;20216;-84
2021/08/08 01:59:06;;;;;;;7.50;3.00;;;;;;;;;;5030174;28;20186;-84
2021/08/08 02:01:32;;;;;;;3.95;2.80;;;;;;;;;;5034004;28;20214;-85
2021/08/08 02:03:58;;;;;;;5.80;2.47;;;;;;;;;;5045676;28;20189;-85
2021/08/08 02:06:24;;;;;;;5.53;3.30;;;;;;;;;;5043297;28;20182;-85
2021/08/08 02:08:50;;;;;;;7.57;2.97;;;;;;;;;;5038077;28;20494;-85
2021/08/08 02:11:16;;;;;;;7.93;3.05;;;;;;;;;;5048229;28;20235;-85
2021/08/08 02:13:42;;;;;;;6.95;2.65;;;;;;;;;;5041437;28;20687;-84
2021/08/08 02:16:08;;;;;;;9.00;2.93;;;;;;;;;;5045300;28;20279;-84
2021/08/08 02:18:34;;;;;;;3.75;3.30;;;;;;;;;;5040547;28;20472;-85
2021/08/08 02:21:00;;;;;;;8.27;2.83;;;;;;;;;;5037519;28;20197;-84
2021/08/08 02:23:26;;;;;;;12.35;2.88;;;;;;;;;;5050008;28;20429;-84
2021/08/08 02:25:52;;;;;;;8.03;2.57;;;;;;;;;;5046053;28;20181;-84
2021/08/08 02:28:19;;;;;;;8.45;2.58;;;;;;;;;;5035360;28;20452;-84
2021/08/08 02:30:45;;;;;;;7.20;2.72;;;;;;;;;;5047253;28;20181;-84
2021/08/08 02:33:11;;;;;;;5.68;2.85;;;;;;;;;;5046624;28;20208;-84
2021/08/08 02:35:37;;;;;;;6.30;2.80;;;;;;;;;;5046302;28;20188;-85
2021/08/08 02:38:03;;;;;;;3.27;2.27;;;;;;;;;;5030327;28;20174;-85
2021/08/08 02:40:29;;;;;;;4.38;2.20;;;;;;;;;;5047379;28;20421;-85
2021/08/08 02:42:55;;;;;;;6.80;2.17;;;;;;;;;;5045322;28;20268;-85
2021/08/08 02:45:21;;;;;;;10.20;2.90;;;;;;;;;;5046884;28;20453;-85
2021/08/08 02:47:47;;;;;;;6.00;2.53;;;;;;;;;;5046951;28;20436;-83
2021/08/08 02:50:13;;;;;;;8.50;2.70;;;;;;;;;;5046465;28;20537;-85
2021/08/08 02:52:41;;;;;;;6.90;2.90;;;;;;;;;;5036314;28;20477;-83
2021/08/08 02:55:09;;;;;;;8.35;2.90;;;;;;;;;;5044918;28;20445;-85
2021/08/08 02:57:35;;;;;;;10.13;2.67;;;;;;;;;;5046229;28;20194;-84
2021/08/08 03:00:01;;;;;;;6.97;2.80;;;;;;;;;;5045394;28;20186;-84
2021/08/08 03:02:27;;;;;;;5.32;2.85;;;;;;;;;;5031926;28;20438;-85
2021/08/08 03:04:53;;;;;;;8.93;3.20;;;;;;;;;;5030905;28;20182;-82
2021/08/08 03:07:19;;;;;;;4.03;2.63;;;;;;;;;;5035525;28;20179;-85
2021/08/08 03:09:45;;;;;;;4.03;2.87;;;;;;;;;;5041999;28;20466;-85
2021/08/08 03:12:11;;;;;;;13.20;4.30;;;;;;;;;;5046582;28;20513;-85
2021/08/08 03:14:36;;;;;;;6.95;3.20;;;;;;;;;;5049133;28;20184;-85
2021/08/08 03:17:03;;;;;;;6.83;2.77;;;;;;;;;;5044972;28;20178;-83
2021/08/08 03:19:29;;;;;;;6.75;3.13;;;;;;;;;;5033605;28;20479;-85
2021/08/08 03:21:55;;;;;;;8.07;3.42;;;;;;;;;;5044588;28;20216;-84
2021/08/08 03:24:21;;;;;;;5.93;2.73;;;;;;;;;;5047361;28;20179;-85
2021/08/08 03:26:47;;;;;;;6.90;3.00;;;;;;;;;;5045271;28;20998;-85
2021/08/08 03:29:12;;;;;;;6.43;2.85;;;;;;;;;;5046740;28;20437;-85
2021/08/08 03:31:39;;;;;;;4.77;3.10;;;;;;;;;;5044994;28;20183;-84
2021/08/08 03:34:05;;;;;;;9.07;4.03;;;;;;;;;;5033885;28;20442;-85
2021/08/08 03:36:31;;;;;;;6.75;3.13;;;;;;;;;;5036702;28;20292;-83
2021/08/08 03:38:57;;;;;;;5.18;2.70;;;;;;;;;;5035149;28;20209;-85
2021/08/08 03:41:23;;;;;;;10.13;2.60;;;;;;;;;;5045073;28;20186;-85
2021/08/08 03:43:49;;;;;;;6.87;3.80;;;;;;;;;;5028185;28;20180;-85
2021/08/08 03:46:15;;;;;;;8.35;3.40;;;;;;;;;;5034506;28;20425;-84
2021/08/08 03:48:41;;;;;;;8.43;3.05;;;;;;;;;;5034881;28;20186;-85
2021/08/08 03:51:07;;;;;;;16.00;3.80;;;;;;;;;;5035589;28;20191;-85
2021/08/08 03:53:33;;;;;;;8.10;3.22;;;;;;;;;;5034420;28;20203;-85
2021/08/08 03:55:59;;;;;;;5.10;3.05;;;;;;;;;;5044340;28;20180;-84
2021/08/08 03:58:30;;;;;;;12.02;3.40;;;;;;;;;;5046104;28;20264;-84
2021/08/08 04:00:56;;;;;;;18.88;3.60;;;;;;;;;;5044102;28;20186;-84
2021/08/08 04:03:22;;;;;;;10.43;3.08;;;;;;;;;;5045482;28;20184;-84
2021/08/08 04:05:48;;;;;;;8.53;3.27;;;;;;;;;;5042393;28;20196;-84
2021/08/08 04:08:14;;;;;;;11.30;4.00;;;;;;;;;;5046196;28;20439;-84
2021/08/08 04:10:40;;;;;;;6.13;3.50;;;;;;;;;;5045410;28;20424;-85
2021/08/08 04:13:06;;;;;;;9.90;3.60;;;;;;;;;;5035054;28;20475;-85
2021/08/08 04:15:32;;;;;;;6.80;2.90;;;;;;;;;;5038959;28;20457;-84
2021/08/08 04:17:58;;;;;;;9.25;3.42;;;;;;;;;;5045658;28;20493;-84
2021/08/08 04:20:24;;;;;;;8.30;2.90;;;;;;;;;;5044225;28;20183;-85
2021/08/08 04:22:50;;;;;;;6.43;3.10;;;;;;;;;;5027698;28;20422;-84
2021/08/08 04:25:16;;;;;;;12.73;3.50;;;;;;;;;;5027806;28;20471;-83
2021/08/08 04:27:42;;;;;;;4.60;3.40;;;;;;;;;;5039692;28;20655;-85
2021/08/08 04:30:08;;;;;;;7.00;3.20;;;;;;;;;;5045509;28;20452;-84
2021/08/08 04:32:34;;;;;;;5.88;2.90;;;;;;;;;;5043475;28;20468;-84
2021/08/08 04:35:00;;;;;;;6.68;2.90;;;;;;;;;;5027639;28;20265;-85
2021/08/08 04:37:26;;;;;;;10.43;3.20;;;;;;;;;;5030455;28;20644;-85
2021/08/08 04:39:52;;;;;;;9.50;3.03;;;;;;;;;;5043811;28;20193;-85
2021/08/08 04:42:18;;;;;;;9.88;3.65;;;;;;;;;;5043640;28;20456;-85
2021/08/08 04:44:44;;;;;;;7.03;3.33;;;;;;;;;;5046228;28;20179;-85
2021/08/08 04:47:10;;;;;;;6.72;2.83;;;;;;;;;;5027808;28;20440;-85
2021/08/08 04:49:36;;;;;;;7.00;2.90;;;;;;;;;;5031073;28;20187;-85
2021/08/08 04:52:03;;;;;;;11.32;5.30;;;;;;;;;;5044379;28;20344;-85
2021/08/08 04:54:29;;;;;;;13.20;2.78;;;;;;;;;;5045732;28;20181;-85
2021/08/08 04:56:55;;;;;;;6.43;2.75;;;;;;;;;;5045408;28;20181;-85
2021/08/08 04:59:21;;;;;;;7.38;4.03;;;;;;;;;;5045639;28;20189;-84
2021/08/08 05:01:47;;;;;;;5.90;3.37;;;;;;;;;;5042066;28;20176;-86
2021/08/08 05:04:13;;;;;;;6.22;3.20;;;;;;;;;;5034476;28;20929;-85
2021/08/08 05:06:39;;;;;;;9.67;3.30;;;;;;;;;;5039958;28;20179;-85
2021/08/08 05:09:05;;;;;;;7.55;2.90;;;;;;;;;;5036790;28;20437;-85
2021/08/08 05:11:32;;;;;;;10.35;3.03;;;;;;;;;;5040257;28;20181;-86
2021/08/08 05:13:59;;;;;;;5.25;3.20;;;;;;;;;;5025195;28;20684;-85
2021/08/08 05:16:26;;;;;;;8.43;3.22;;;;;;;;;;5043201;28;20258;-86
2021/08/08 05:18:52;;;;;;;8.75;3.33;;;;;;;;;;5034558;28;20221;-85
2021/08/08 05:21:18;;;;;;;13.57;3.38;;;;;;;;;;5033390;28;20187;-85
2021/08/08 05:23:44;;;;;;;6.32;3.30;;;;;;;;;;5031898;28;20208;-85
2021/08/08 05:26:10;;;;;;;9.23;2.92;;;;;;;;;;5044514;28;20676;-85
2021/08/08 05:28:40;;;;;;;6.30;4.20;;;;;;;;;;5043779;28;20189;-85
2021/08/08 05:31:06;;;;;;;8.95;3.83;;;;;;;;;;5041396;28;20453;-86
2021/08/08 05:33:32;;;;;;;3.67;2.87;;;;;;;;;;5044938;28;20214;-85
2021/08/08 05:35:58;;;;;;;5.55;3.17;;;;;;;;;;5043155;28;20459;-85
2021/08/08 05:38:24;;;;;;;5.17;3.37;;;;;;;;;;5043071;28;20190;-85
2021/08/08 05:40:50;;;;;;;7.05;3.40;;;;;;;;;;5027498;28;20424;-85
2021/08/08 05:43:18;;;;;;;8.80;3.47;;;;;;;;;;5032660;28;20202;-84
2021/08/08 05:45:47;;;;;;;5.07;2.80;;;;;;;;;;5042654;28;20177;-85
2021/08/08 05:48:13;;;;;;;9.68;3.03;;;;;;;;;;5041168;28;20250;-85
2021/08/08 05:50:40;;;;;;;8.35;4.07;;;;;;;;;;5033239;28;20703;-84
2021/08/08 05:53:06;;;;;;;5.00;3.22;;;;;;;;;;5043081;28;20281;-84
2021/08/08 05:55:32;;;;;;;5.75;3.50;;;;;;;;;;5044325;28;20170;-85
2021/08/08 05:57:58;;;;;;;5.13;3.20;;;;;;;;;;5033689;28;20201;-85
2021/08/08 06:00:24;;;;;;;10.73;3.20;;;;;;;;;;5036620;28;20180;-84
2021/08/08 06:02:50;;;;;;;11.23;3.60;;;;;;;;;;5043130;28;20428;-84
2021/08/08 06:05:16;;;;;;;7.05;3.45;;;;;;;;;;5030678;28;20188;-84
2021/08/08 06:07:42;;;;;;;6.50;2.80;;;;;;;;;;5042087;28;20238;-85
2021/08/08 06:10:08;;;;;;;9.30;4.30;;;;;;;;;;5032912;28;20433;-85
2021/08/08 06:12:34;;;;;;;9.45;4.00;;;;;;;;;;5037308;28;20598;-85
2021/08/08 06:15:00;;;;;;;9.43;3.23;;;;;;;;;;5045280;28;20173;-84
2021/08/08 06:17:26;;;;;;;7.80;3.00;;;;;;;;;;5040490;28;21022;-85
2021/08/08 06:19:52;;;;;;;7.47;3.30;;;;;;;;;;5042058;28;20439;-85
2021/08/08 06:22:18;;;;;;;8.05;3.13;;;;;;;;;;5045208;28;20470;-85
2021/08/08 06:24:44;;;;;;;3.60;2.90;;;;;;;;;;5044199;28;20174;-84
2021/08/08 06:27:11;;;;;;;10.50;3.17;;;;;;;;;;5043826;28;20462;-84
2021/08/08 06:29:37;;;;;;;7.95;3.00;;;;;;;;;;5042663;28;20346;-85
2021/08/08 06:32:04;;;;;;;5.95;3.20;;;;;;;;;;5025134;28;20205;-84
2021/08/08 06:34:30;;;;;;;6.18;2.90;;;;;;;;;;5029105;28;20171;-85
2021/08/08 06:36:56;;;;;;;7.90;3.33;;;;;;;;;;5041871;28;20201;-85
2021/08/08 06:39:22;;;;;;;5.07;3.40;;;;;;;;;;5040644;28;20429;-85
2021/08/08 06:41:48;;;;;;;8.10;3.63;;;;;;;;;;5031798;28;20436;-85
2021/08/08 06:44:14;;;;;;;9.60;3.97;;;;;;;;;;5030803;28;20428;-85
2021/08/08 06:46:40;;;;;;;4.50;3.03;;;;;;;;;;5046268;28;20234;-86
2021/08/08 06:49:06;;;;;;;9.40;3.60;;;;;;;;;;5044963;28;21122;-85
2021/08/08 06:51:32;;;;;;;5.40;2.90;;;;;;;;;;5046106;28;20428;-86
2021/08/08 06:53:58;;;;;;;5.97;2.73;;;;;;;;;;5045852;28;20494;-85
2021/08/08 06:56:24;;;;;;;10.03;3.80;;;;;;;;;;5049169;28;20449;-85
2021/08/08 06:58:49;;;;;;;8.40;3.40;;;;;;;;;;5047249;28;20424;-85
2021/08/08 07:01:16;;;;;;;6.57;2.70;;;;;;;;;;5034800;28;20499;-85
2021/08/08 07:03:42;;;;;;;9.15;3.28;;;;;;;;;;5035102;28;20449;-84
2021/08/08 07:06:08;;;;;;;5.93;3.15;;;;;;;;;;5039358;28;20245;-85
2021/08/08 07:08:34;;;;;;;6.03;4.03;;;;;;;;;;5047692;28;20187;-84
2021/08/08 07:11:00;;;;;;;7.87;2.83;;;;;;;;;;5045471;28;20419;-86
2021/08/08 07:13:26;;;;;;;10.43;4.30;;;;;;;;;;5046351;28;20500;-85
2021/08/08 07:15:52;;;;;;;9.05;3.65;;;;;;;;;;5041642;28;20432;-84
2021/08/08 07:18:18;;;;;;;5.73;3.13;;;;;;;;;;5046946;28;20279;-85
2021/08/08 07:20:44;;;;;;;8.55;3.35;;;;;;;;;;5047379;28;20471;-85
2021/08/08 07:23:10;;;;;;;5.65;4.15;;;;;;;;;;5029268;28;20186;-85
2021/08/08 07:25:36;;;;;;;6.70;3.10;;;;;;;;;;5030563;28;20197;-85
2021/08/08 07:28:02;;;;;;;11.53;3.60;;;;;;;;;;5045020;28;20801;-84
2021/08/08 07:30:28;;;;;;;12.88;3.90;;;;;;;;;;5040044;28;20476;-84
2021/08/08 07:32:54;;;;;;;6.20;3.80;;;;;;;;;;5034678;28;20439;-85
2021/08/08 07:35:21;;;;;;;10.60;3.55;;;;;;;;;;5030310;28;20181;-85
2021/08/08 07:37:47;;;;;;;5.32;4.60;;;;;;;;;;5028625;28;20175;-85
2021/08/08 07:40:13;;;;;;;8.13;4.07;;;;;;;;;;5056567;28;20228;-86
2021/08/08 07:42:39;;;;;;;10.13;4.93;;;;;;;;;;5056312;28;20189;-85
2021/08/08 07:45:05;;;;;;;8.07;3.57;;;;;;;;;;5047357;28;20193;-85
2021/08/08 07:47:31;;;;;;;9.23;3.90;;;;;;;;;;5042106;28;20449;-86
2021/08/08 07:49:57;;;;;;;5.03;3.57;;;;;;;;;;5028740;28;20182;-85
2021/08/08 07:52:23;;;;;;;7.60;2.97;;;;;;;;;;5047871;28;20467;-86
2021/08/08 07:54:49;;;;;;;5.10;2.63;;;;;;;;;;5045797;28;20424;-84
2021/08/08 07:57:15;;;;;;;3.92;2.72;;;;;;;;;;5041411;28;20469;-84
2021/08/08 07:59:41;;;;;;;4.00;3.13;;;;;;;;;;5032785;28;20178;-85
2021/08/08 08:02:07;;;;;;;9.13;3.47;;;;;;;;;;5045290;28;20923;-85
2021/08/08 08:04:33;;;;;;;6.90;3.20;;;;;;;;;;5045762;28;20448;-85
2021/08/08 08:06:59;;;;;;;4.93;3.77;;;;;;;;;;5044771;28;20228;-85
2021/08/08 08:09:25;;;;;;;5.50;2.60;;;;;;;;;;5045988;28;20470;-86
2021/08/08 08:11:51;;;;;;;7.28;2.90;;;;;;;;;;5046233;28;20464;-85
2021/08/08 08:14:17;;;;;;;11.73;3.15;;;;;;;;;;5043979;28;20189;-85
2021/08/08 08:16:43;;;;;;;3.50;2.80;;;;;;;;;;5027424;28;20185;-85
2021/08/08 08:19:09;;;;;;;5.73;3.50;;;;;;;;;;5033710;28;20462;-83
2021/08/08 08:21:35;;;;;;;6.15;3.03;;;;;;;;;;5040957;28;20504;-85
2021/08/08 08:24:01;;;;;;;3.57;3.00;;;;;;;;;;5045611;28;20189;-85
2021/08/08 08:26:28;;;;;;;4.45;2.95;;;;;;;;;;5042429;28;20443;-86
2021/08/08 08:28:54;;;;;;;7.68;3.13;;;;;;;;;;5029508;28;20594;-85
2021/08/08 08:31:20;;;;;;;6.57;2.90;;;;;;;;;;5039327;28;20188;-86
2021/08/08 08:33:46;;;;;;;10.73;3.50;;;;;;;;;;5043854;28;20490;-85
2021/08/08 08:36:12;;;;;;;10.25;3.58;;;;;;;;;;5044042;28;20441;-84
2021/08/08 08:38:38;;;;;;;7.03;3.20;;;;;;;;;;5045235;28;20173;-85
2021/08/08 08:41:05;;;;;;;7.65;3.15;;;;;;;;;;5046021;28;20447;-85
2021/08/08 08:43:31;;;;;;;6.50;3.30;;;;;;;;;;5030715;28;20194;-85
2021/08/08 08:45:57;;;;;;;6.95;3.30;;;;;;;;;;5042174;28;20190;-85
2021/08/08 08:48:23;;;;;;;3.47;2.75;;;;;;;;;;5043437;28;20193;-85
2021/08/08 08:50:52;;;;;;;8.63;3.10;;;;;;;;;;5045495;28;20182;-86
2021/08/08 08:53:18;;;;;;;8.70;3.58;;;;;;;;;;5043702;28;20206;-83
2021/08/08 08:55:44;;;;;;;9.30;3.50;;;;;;;;;;5029568;28;20175;-84
2021/08/08 08:58:11;;;;;;;6.93;2.90;;;;;;;;;;5047004;28;20189;-84
2021/08/08 09:00:37;;;;;;;4.10;2.65;;;;;;;;;;5043627;28;20444;-84
2021/08/08 09:03:03;;;;;;;7.90;3.20;;;;;;;;;;5043821;28;20246;-84
2021/08/08 09:05:30;;;;;;;12.23;3.70;;;;;;;;;;5041096;28;20411;-84
2021/08/08 09:07:57;;;;;;;4.72;2.40;;;;;;;;;;5028230;28;20167;-84
2021/08/08 09:10:23;;;;;;;6.68;3.17;;;;;;;;;;5031691;28;20201;-84
2021/08/08 09:13:00;;;;;;;6.75;2.75;;;;;;;;;;5033205;28;20205;-84
2021/08/08 09:15:37;;;;;;;3.85;2.90;;;;;;;;;;5037866;28;20208;-85
2021/08/08 09:18:10;;;;;;;4.90;3.17;;;;;;;;;;5042398;28;20224;-85
2021/08/08 09:20:36;;;;;;;9.15;3.42;;;;;;;;;;5033645;28;20184;-84
2021/08/08 09:23:02;;;;;;;4.90;2.45;;;;;;;;;;5028482;28;20249;-85
2021/08/08 09:25:28;;;;;;;4.70;2.60;;;;;;;;;;5044527;28;20184;-84
2021/08/08 09:28:05;;;;;;;5.90;3.40;;;;;;;;;;5046043;28;20186;-84
2021/08/08 09:30:35;;;;;;;9.35;3.40;;;;;;;;;;5038762;28;20437;-85
2021/08/08 09:33:05;;;;;;;6.07;3.00;;;;;;;;;;5036155;28;20576;-82
2021/08/08 09:35:35;;;;;;;13.23;3.42;;;;;;;;;;5046588;28;20214;-85
2021/08/08 09:38:02;;;;;;;5.88;3.03;;;;;;;;;;5042788;28;20170;-86
2021/08/08 09:40:28;;;;;;;6.78;2.70;;;;;;;;;;5041159;28;20356;-86
2021/08/08 09:42:54;;;;;;;6.32;2.70;;;;;;;;;;5042776;28;20258;-85
2021/08/08 09:45:20;;;;;;;7.88;3.33;;;;;;;;;;5042059;28;20189;-84
2021/08/08 09:47:48;;;;;;;7.15;2.97;;;;;;;;;;5043048;28;20224;-84
2021/08/08 09:50:15;;;;;;;4.05;2.92;;;;;;;;;;5046019;28;20687;-85
2021/08/08 09:52:42;;;;;;;6.40;2.85;;;;;;;;;;5043979;28;20212;-84
2021/08/08 09:55:26;;;;;;;7.78;2.65;;;;;;;;;;5033559;28;20193;-85
2021/08/08 09:57:52;;;;;;;5.00;2.70;;;;;;;;;;5042077;28;20179;-84
2021/08/08 10:00:33;;;;;;;7.10;2.70;;;;;;;;;;5040311;28;20219;-83
2021/08/08 10:02:59;;;;;;;5.13;2.92;;;;;;;;;;5034007;28;20240;-84
2021/08/08 10:05:26;;;;;;;6.40;3.00;;;;;;;;;;5041094;28;20190;-85
2021/08/08 10:07:53;;;;;;;4.75;2.60;;;;;;;;;;5042008;28;20177;-85
2021/08/08 10:10:20;;;;;;;5.45;3.05;;;;;;;;;;5045530;28;20178;-84
2021/08/08 10:13:05;;;;;;;3.88;2.30;;;;;;;;;;5041469;28;20264;-84
2021/08/08 10:15:31;;;;;;;7.93;3.35;;;;;;;;;;5045243;28;20181;-85
2021/08/08 10:18:00;;;;;;;11.85;4.15;;;;;;;;;;5043300;28;20297;-82
2021/08/08 10:20:28;;;;;;;5.55;3.00;;;;;;;;;;5047290;28;20190;-84
2021/08/08 10:22:54;;;;;;;4.43;2.78;;;;;;;;;;5045226;28;20190;-83
2021/08/08 10:25:20;;;;;;;5.95;2.80;;;;;;;;;;5036580;28;20182;-85
2021/08/08 10:27:46;;;;;;;5.10;3.25;;;;;;;;;;5043289;28;20332;-84
2021/08/08 10:30:12;;;;;;;7.18;3.08;;;;;;;;;;5046499;28;20183;-84
2021/08/08 10:32:38;;;;;;;4.43;2.70;;;;;;;;;;5046287;28;20285;-84
2021/08/08 10:35:14;;;;;;;4.38;2.35;;;;;;;;;;5031948;28;20482;-84
2021/08/08 10:37:42;;;;;;;5.10;2.70;;;;;;;;;;5047531;28;20177;-84
2021/08/08 10:40:08;;;;;;;5.82;3.00;;;;;;;;;;5037685;28;20431;-84
2021/08/08 10:42:45;;;;;;;5.23;2.20;;;;;;;;;;5036922;28;20178;-84
2021/08/08 10:45:27;;;;;;;2.80;2.00;;;;;;;;;;5037383;28;20464;-83
2021/08/08 10:48:00;;;;;;;7.87;3.20;;;;;;;;;;5037838;28;20470;-83
2021/08/08 10:50:36;;;;;;;5.50;2.77;;;;;;;;;;5043825;28;20440;-84
2021/08/08 10:53:02;;;;;;;7.35;2.88;;;;;;;;;;5030079;28;20434;-83
2021/08/08 10:55:30;;;;;;;6.55;2.70;;;;;;;;;;5045550;28;20177;-85
2021/08/08 10:57:56;;;;;;;7.45;3.10;;;;;;;;;;5037368;28;20371;-84
2021/08/08 11:00:30;;;;;;;5.43;2.90;;;;;;;;;;5039235;28;20181;-84
2021/08/08 11:02:56;;;;;;;4.53;2.40;;;;;;;;;;5045735;28;20415;-84
2021/08/08 11:05:22;;;;;;;11.23;2.77;;;;;;;;;;5046668;28;20197;-83
2021/08/08 11:07:48;;;;;;;2.83;2.30;;;;;;;;;;5029365;28;20467;-84
2021/08/08 11:10:25;;;;;;;4.68;2.83;;;;;;;;;;5042707;28;20462;-85
2021/08/08 11:12:52;;;;;;;6.38;2.97;;;;;;;;;;5048369;28;20216;-84
2021/08/08 11:15:18;;;;;;;4.50;1.98;;;;;;;;;;5047571;28;20187;-82
2021/08/08 11:17:46;;;;;;;4.22;2.30;;;;;;;;;;5048840;28;20189;-85
2021/08/08 11:20:12;;;;;;;4.85;3.00;;;;;;;;;;5046198;28;20203;-84
2021/08/08 11:22:38;;;;;;;4.03;2.60;;;;;;;;;;5046873;28;20184;-83
2021/08/08 11:25:08;;;;;;;5.03;2.03;;;;;;;;;;5037360;28;20195;-84
2021/08/08 11:27:36;;;;;;;6.55;2.42;;;;;;;;;;5035016;28;20187;-83
2021/08/08 11:30:04;;;;;;;7.90;2.50;;;;;;;;;;5037897;28;20217;-84
2021/08/08 11:32:33;;;;;;;5.75;2.35;;;;;;;;;;5047523;28;20203;-85
2021/08/08 11:35:06;;;;;;;3.55;2.10;;;;;;;;;;5045919;28;20627;-83
2021/08/08 11:37:33;;;;;;;2.88;1.90;;;;;;;;;;5030354;28;20261;-84
2021/08/08 11:40:00;;;;;;;4.60;1.85;;;;;;;;;;5034498;28;20185;-84
2021/08/08 11:42:30;;;;;;;5.00;2.00;;;;;;;;;;5036210;28;20197;-84
2021/08/08 11:44:56;;;;;;;2.72;2.35;;;;;;;;;;5034665;28;20694;-83
2021/08/08 11:47:27;;;;;;;4.07;2.70;;;;;;;;;;5032781;28;20189;-83
2021/08/08 11:49:53;;;;;;;7.60;2.27;;;;;;;;;;5044294;28;20184;-82
2021/08/08 11:52:19;;;;;;;4.70;2.20;;;;;;;;;;5046702;28;20490;-83
2021/08/08 11:54:46;;;;;;;5.30;2.55;;;;;;;;;;5047404;28;20186;-84
2021/08/08 11:57:24;;;;;;;3.35;2.17;;;;;;;;;;5042214;28;20217;-83
2021/08/08 11:59:50;;;;;;;4.30;2.70;;;;;;;;;;5037226;28;20241;-83
2021/08/08 12:02:17;;;;;;;4.40;2.50;;;;;;;;;;5045591;28;20429;-86
2021/08/08 12:04:43;;;;;;;6.90;2.53;;;;;;;;;;5041053;28;20383;-84
2021/08/08 12:07:10;;;;;;;2.93;2.00;;;;;;;;;;5034745;28;20449;-83
2021/08/08 12:09:37;;;;;;;3.47;1.40;;;;;;;;;;5041762;28;20856;-84
2021/08/08 12:12:04;;;;;;;3.03;2.13;;;;;;;;;;5044887;28;20494;-83
2021/08/08 12:14:31;;;;;;;2.30;1.80;;;;;;;;;;5047456;28;20440;-84
2021/08/08 12:17:08;;;;;;;5.20;2.10;;;;;;;;;;5028862;28;20517;-83
2021/08/08 12:19:36;;;;;;;5.20;2.43;;;;;;;;;;5042732;28;20466;-83
2021/08/08 12:22:06;;;;;;;5.50;1.93;;;;;;;;;;5037559;28;20447;-83
2021/08/08 12:24:43;;;;;;;2.80;1.93;;;;;;;;;;5034992;28;20459;-83
2021/08/08 12:27:09;;;;;;;3.83;2.03;;;;;;;;;;5035432;28;20620;-83
2021/08/08 12:29:39;;;;;;;6.47;2.50;;;;;;;;;;5046109;28;20438;-82
2021/08/08 12:32:10;;;;;;;2.00;1.40;;;;;;;;;;5028211;28;20448;-83
2021/08/08 12:34:37;;;;;;;2.30;1.43;;;;;;;;;;5030161;28;20410;-83
2021/08/08 12:37:07;;;;;;;4.07;1.97;;;;;;;;;;5034218;28;20682;-82
2021/08/08 12:39:34;;;;;;;4.90;2.07;;;;;;;;;;5042212;28;20410;-84
2021/08/08 12:42:02;;;;;;;2.10;1.60;;;;;;;;;;5044790;28;20413;-83
2021/08/08 12:44:35;;;;;;;5.13;2.33;;;;;;;;;;5044996;28;20435;-81
2021/08/08 12:47:02;;;;;;;3.00;1.57;;;;;;;;;;5029113;28;20455;-83
2021/08/08 12:49:32;;;;;;;5.30;2.47;;;;;;;;;;5029346;28;20435;-83
2021/08/08 12:51:58;;;;;;;3.10;1.80;;;;;;;;;;5034248;28;20560;-83
2021/08/08 12:54:24;;;;;;;2.90;1.43;;;;;;;;;;5034448;28;20436;-83
2021/08/08 12:56:50;;;;;;;4.03;1.90;;;;;;;;;;5034498;28;20450;-84
2021/08/08 12:59:16;;;;;;;2.73;1.87;;;;;;;;;;5029542;28;20436;-81
2021/08/08 13:01:43;;;;;;;2.30;1.70;;;;;;;;;;5027654;28;20449;-83
2021/08/08 13:04:09;;;;;;;3.43;1.97;;;;;;;;;;5045801;28;20436;-83
2021/08/08 13:06:36;;;;;;;2.50;1.60;;;;;;;;;;5039403;28;20986;-82
2021/08/08 13:09:02;;;;;;;4.40;1.40;;;;;;;;;;5034871;28;20466;-83
2021/08/08 13:11:28;;;;;;;2.40;1.40;;;;;;;;;;5044642;28;20791;-85
2021/08/08 13:13:54;;;;;;;2.70;1.60;;;;;;;;;;5027467;28;20467;-83
2021/08/08 13:16:20;;;;;;;4.50;1.57;;;;;;;;;;5045115;28;20421;-85
2021/08/08 13:18:46;;;;;;;1.57;1.20;;;;;;;;;;5036900;28;20461;-83
2021/08/08 13:21:12;;;;;;;2.20;1.37;;;;;;;;;;5034691;28;20446;-83
2021/08/08 13:23:38;;;;;;;3.03;1.27;;;;;;;;;;5045485;28;20439;-84
2021/08/08 13:26:05;;;;;;;1.43;1.00;;;;;;;;;;5026755;28;20444;-83
2021/08/08 13:28:31;;;;;;;1.93;1.17;;;;;;;;;;5039624;28;20412;-83
2021/08/08 13:30:57;;;;;;;3.60;1.60;;;;;;;;;;5040051;28;20444;-83
2021/08/08 13:33:23;;;;;;;3.80;1.50;;;;;;;;;;5045533;28;20464;-85
2021/08/08 13:35:49;;;;;;;1.63;1.40;;;;;;;;;;5043628;28;20512;-82
2021/08/08 13:38:16;;;;;;;2.50;1.30;;;;;;;;;;5029311;28;20445;-84
2021/08/08 13:40:42;;;;;;;2.27;1.40;;;;;;;;;;5044277;28;20413;-84
2021/08/08 13:43:08;;;;;;;2.07;1.10;;;;;;;;;;5045463;28;20441;-84
2021/08/08 13:45:34;;;;;;;2.80;1.90;;;;;;;;;;5038327;28;20436;-83
2021/08/08 13:48:00;;;;;;;1.77;1.27;;;;;;;;;;5029736;28;20448;-84
2021/08/08 13:50:26;;;;;;;2.77;1.07;;;;;;;;;;5045263;28;20481;-84
2021/08/08 13:52:52;;;;;;;4.03;1.57;;;;;;;;;;5026211;28;20858;-83
2021/08/08 13:55:20;;;;;;;1.90;1.30;;;;;;;;;;5032189;28;20839;-83
2021/08/08 13:57:50;;;;;;;2.63;1.40;;;;;;;;;;5041847;28;20669;-83
2021/08/08 14:00:16;;;;;;;2.30;1.47;;;;;;;;;;5045621;28;20466;-83
2021/08/08 14:02:42;;;;;;;3.13;1.40;;;;;;;;;;5042068;28;20524;-83
2021/08/08 14:05:09;;;;;;;2.23;1.47;;;;;;;;;;5043455;28;20440;-82
2021/08/08 14:07:35;;;;;;;2.57;1.43;;;;;;;;;;5044553;28;20523;-83
2021/08/08 14:10:01;;;;;;;1.40;1.30;;;;;;;;;;5034485;28;20429;-83
2021/08/08 14:12:27;;;;;;;1.30;1.07;;;;;;;;;;5039229;28;20499;-83
2021/08/08 14:14:53;;;;;;;3.10;1.70;;;;;;;;;;5043145;28;20443;-81
2021/08/08 14:17:19;;;;;;;2.40;1.30;;;;;;;;;;5026986;28;20452;-83
2021/08/08 14:19:45;;;;;;;2.13;1.43;;;;;;;;;;5043691;28;20490;-82
2021/08/08 14:22:11;;;;;;;3.60;1.50;;;;;;;;;;5045222;28;20449;-84
2021/08/08 14:24:37;;;;;;;4.23;1.77;;;;;;;;;;5046149;28;20889;-83
2021/08/08 14:27:04;;;;;;;2.23;1.17;;;;;;;;;;5044754;28;21003;-83
2021/08/08 14:29:30;;;;;;;1.73;1.00;;;;;;;;;;5043822;28;20440;-83
2021/08/08 14:31:56;;;;;;;3.50;1.33;;;;;;;;;;5026454;28;20512;-82
2021/08/08 14:34:22;;;;;;;2.33;1.20;;;;;;;;;;5039253;28;20463;-84
2021/08/08 14:36:48;;;;;;;2.80;1.53;;;;;;;;;;5035431;28;20453;-83
2021/08/08 14:39:14;;;;;;;1.90;1.50;;;;;;;;;;5034581;28;20430;-83